sensor_id;sensor_type;location;lat;lon;timestamp;P1;durP1;ratioP1;P2;durP2;ratioP2
19205;SDS011;59358;52.134;5.596;2024-03-02T00:00:48;4.70;;;1.50;;
19205;SDS011;59358;52.134;5.596;2024-03-02T00:03:16;3.25;;;1.50;;
19205;SDS011;59358;52.134;5.596;2024-03-02T00:05:43;2.38;;;1.30;;
19205;SDS011;59358;52.134;5.596;2024-03-02T00:08:14;3.78;;;1.50;;
19205;SDS011;59358;52.134;5.596;2024-03-02T00:10:48;2.92;;;1.45;;
19205;SDS011;59358;52.134;5.596;2024-03-02T00:13:17;2.33;;;1.25;;
19205;SDS011;59358;52.134;5.596;2024-03-02T00:15:48;4.28;;;1.83;;
19205;SDS011;59358;52.134;5.596;2024-03-02T00:18:18;3.05;;;1.33;;
19205;SDS011;59358;52.134;5.596;2024-03-02T00:20:47;4.32;;;1.20;;
19205;SDS011;59358;52.134;5.596;2024-03-02T00:23:14;1.73;;;1.30;;
19205;SDS011;59358;52.134;5.596;2024-03-02T00:25:43;7.88;;;1.75;;
19205;SDS011;59358;52.134;5.596;2024-03-02T00:28:11;2.90;;;1.35;;
19205;SDS011;59358;52.134;5.596;2024-03-02T00:30:54;3.60;;;1.23;;
19205;SDS011;59358;52.134;5.596;2024-03-02T00:33:23;4.07;;;1.50;;
19205;SDS011;59358;52.134;5.596;2024-03-02T00:35:52;2.22;;;1.10;;
19205;SDS011;59358;52.134;5.596;2024-03-02T00:38:20;2.85;;;1.40;;
19205;SDS011;59358;52.134;5.596;2024-03-02T00:40:47;2.67;;;1.63;;
19205;SDS011;59358;52.134;5.596;2024-03-02T00:43:21;2.70;;;1.60;;
19205;SDS011;59358;52.134;5.596;2024-03-02T00:46:06;3.65;;;1.38;;
19205;SDS011;59358;52.134;5.596;2024-03-02T00:48:33;1.67;;;1.50;;
19205;SDS011;59358;52.134;5.596;2024-03-02T00:51:01;3.17;;;1.30;;
19205;SDS011;59358;52.134;5.596;2024-03-02T00:53:28;3.70;;;1.23;;
19205;SDS011;59358;52.134;5.596;2024-03-02T00:55:56;5.00;;;1.40;;
19205;SDS011;59358;52.134;5.596;2024-03-02T00:58:23;2.17;;;1.20;;
19205;SDS011;59358;52.134;5.596;2024-03-02T01:00:50;3.80;;;1.30;;
19205;SDS011;59358;52.134;5.596;2024-03-02T01:03:18;3.05;;;2.00;;
19205;SDS011;59358;52.134;5.596;2024-03-02T01:05:45;3.97;;;2.10;;
19205;SDS011;59358;52.134;5.596;2024-03-02T01:08:12;1.63;;;1.27;;
19205;SDS011;59358;52.134;5.596;2024-03-02T01:10:38;2.45;;;1.30;;
19205;SDS011;59358;52.134;5.596;2024-03-02T01:13:05;2.35;;;1.42;;
19205;SDS011;59358;52.134;5.596;2024-03-02T01:15:33;1.85;;;0.85;;
19205;SDS011;59358;52.134;5.596;2024-03-02T01:18:00;3.60;;;1.23;;
19205;SDS011;59358;52.134;5.596;2024-03-02T01:20:28;1.67;;;1.02;;
19205;SDS011;59358;52.134;5.596;2024-03-02T01:22:55;0.73;;;0.70;;
19205;SDS011;59358;52.134;5.596;2024-03-02T01:25:21;0.50;;;0.50;;
19205;SDS011;59358;52.134;5.596;2024-03-02T01:27:48;1.17;;;0.70;;
19205;SDS011;59358;52.134;5.596;2024-03-02T01:30:15;0.73;;;0.70;;
19205;SDS011;59358;52.134;5.596;2024-03-02T01:32:42;0.68;;;0.60;;
19205;SDS011;59358;52.134;5.596;2024-03-02T01:35:09;1.60;;;0.70;;
19205;SDS011;59358;52.134;5.596;2024-03-02T01:37:37;0.77;;;0.45;;
19205;SDS011;59358;52.134;5.596;2024-03-02T01:40:04;0.57;;;0.50;;
19205;SDS011;59358;52.134;5.596;2024-03-02T01:42:34;0.65;;;0.60;;
19205;SDS011;59358;52.134;5.596;2024-03-02T01:45:02;0.90;;;0.60;;
19205;SDS011;59358;52.134;5.596;2024-03-02T01:47:29;0.85;;;0.50;;
19205;SDS011;59358;52.134;5.596;2024-03-02T01:49:57;2.33;;;0.88;;
19205;SDS011;59358;52.134;5.596;2024-03-02T01:52:24;1.60;;;0.60;;
19205;SDS011;59358;52.134;5.596;2024-03-02T01:54:53;0.85;;;0.70;;
19205;SDS011;59358;52.134;5.596;2024-03-02T01:57:19;0.55;;;0.50;;
19205;SDS011;59358;52.134;5.596;2024-03-02T01:59:46;0.35;;;0.35;;
19205;SDS011;59358;52.134;5.596;2024-03-02T02:02:13;1.58;;;0.63;;
19205;SDS011;59358;52.134;5.596;2024-03-02T02:04:40;1.02;;;0.80;;
19205;SDS011;59358;52.134;5.596;2024-03-02T02:07:07;0.80;;;0.80;;
19205;SDS011;59358;52.134;5.596;2024-03-02T02:09:34;1.38;;;0.70;;
19205;SDS011;59358;52.134;5.596;2024-03-02T02:12:03;0.38;;;0.38;;
19205;SDS011;59358;52.134;5.596;2024-03-02T02:14:31;0.60;;;0.50;;
19205;SDS011;59358;52.134;5.596;2024-03-02T02:16:58;0.40;;;0.40;;
19205;SDS011;59358;52.134;5.596;2024-03-02T02:19:25;0.80;;;0.57;;
19205;SDS011;59358;52.134;5.596;2024-03-02T02:21:53;1.45;;;0.77;;
19205;SDS011;59358;52.134;5.596;2024-03-02T02:24:20;0.77;;;0.60;;
19205;SDS011;59358;52.134;5.596;2024-03-02T02:26:47;0.70;;;0.70;;
19205;SDS011;59358;52.134;5.596;2024-03-02T02:29:14;1.45;;;0.40;;
19205;SDS011;59358;52.134;5.596;2024-03-02T02:31:40;1.30;;;0.60;;
19205;SDS011;59358;52.134;5.596;2024-03-02T02:34:07;1.85;;;0.50;;
19205;SDS011;59358;52.134;5.596;2024-03-02T02:36:35;0.88;;;0.73;;
19205;SDS011;59358;52.134;5.596;2024-03-02T02:39:06;0.68;;;0.50;;
19205;SDS011;59358;52.134;5.596;2024-03-02T02:41:37;0.50;;;0.50;;
19205;SDS011;59358;52.134;5.596;2024-03-02T02:44:04;2.88;;;0.75;;
19205;SDS011;59358;52.134;5.596;2024-03-02T02:46:31;0.65;;;0.65;;
19205;SDS011;59358;52.134;5.596;2024-03-02T02:48:57;1.05;;;0.60;;
19205;SDS011;59358;52.134;5.596;2024-03-02T02:51:24;0.63;;;0.60;;
19205;SDS011;59358;52.134;5.596;2024-03-02T02:53:51;0.50;;;0.50;;
19205;SDS011;59358;52.134;5.596;2024-03-02T02:56:19;0.52;;;0.50;;
19205;SDS011;59358;52.134;5.596;2024-03-02T02:58:47;1.05;;;0.50;;
19205;SDS011;59358;52.134;5.596;2024-03-02T03:01:15;0.70;;;0.70;;
19205;SDS011;59358;52.134;5.596;2024-03-02T03:03:43;0.73;;;0.60;;
19205;SDS011;59358;52.134;5.596;2024-03-02T03:06:10;0.70;;;0.60;;
19205;SDS011;59358;52.134;5.596;2024-03-02T03:08:37;0.60;;;0.60;;
19205;SDS011;59358;52.134;5.596;2024-03-02T03:11:04;0.70;;;0.70;;
19205;SDS011;59358;52.134;5.596;2024-03-02T03:13:33;1.38;;;0.60;;
19205;SDS011;59358;52.134;5.596;2024-03-02T03:16:00;0.60;;;0.60;;
19205;SDS011;59358;52.134;5.596;2024-03-02T03:18:28;0.77;;;0.60;;
19205;SDS011;59358;52.134;5.596;2024-03-02T03:20:54;1.05;;;0.68;;
19205;SDS011;59358;52.134;5.596;2024-03-02T03:23:21;2.05;;;0.50;;
19205;SDS011;59358;52.134;5.596;2024-03-02T03:25:51;1.00;;;0.70;;
19205;SDS011;59358;52.134;5.596;2024-03-02T03:28:18;1.20;;;0.60;;
19205;SDS011;59358;52.134;5.596;2024-03-02T03:30:46;1.33;;;0.80;;
19205;SDS011;59358;52.134;5.596;2024-03-02T03:33:13;1.75;;;0.80;;
19205;SDS011;59358;52.134;5.596;2024-03-02T03:35:40;0.90;;;0.80;;
19205;SDS011;59358;52.134;5.596;2024-03-02T03:38:07;0.95;;;0.65;;
19205;SDS011;59358;52.134;5.596;2024-03-02T03:40:33;1.73;;;0.90;;
19205;SDS011;59358;52.134;5.596;2024-03-02T03:43:00;1.00;;;0.90;;
19205;SDS011;59358;52.134;5.596;2024-03-02T03:45:27;0.85;;;0.85;;
19205;SDS011;59358;52.134;5.596;2024-03-02T03:47:56;2.30;;;0.95;;
19205;SDS011;59358;52.134;5.596;2024-03-02T03:50:23;0.75;;;0.75;;
19205;SDS011;59358;52.134;5.596;2024-03-02T03:52:50;1.13;;;0.90;;
19205;SDS011;59358;52.134;5.596;2024-03-02T03:55:17;0.80;;;0.80;;
19205;SDS011;59358;52.134;5.596;2024-03-02T03:57:44;0.80;;;0.80;;
19205;SDS011;59358;52.134;5.596;2024-03-02T04:00:11;1.58;;;1.00;;
19205;SDS011;59358;52.134;5.596;2024-03-02T04:02:38;1.98;;;0.60;;
19205;SDS011;59358;52.134;5.596;2024-03-02T04:05:07;1.20;;;0.82;;
19205;SDS011;59358;52.134;5.596;2024-03-02T04:07:35;1.98;;;1.05;;
19205;SDS011;59358;52.134;5.596;2024-03-02T04:10:07;0.75;;;0.65;;
19205;SDS011;59358;52.134;5.596;2024-03-02T04:12:34;0.70;;;0.60;;
19205;SDS011;59358;52.134;5.596;2024-03-02T04:15:02;1.77;;;0.85;;
19205;SDS011;59358;52.134;5.596;2024-03-02T04:17:31;0.75;;;0.73;;
19205;SDS011;59358;52.134;5.596;2024-03-02T04:20:01;0.80;;;0.60;;
19205;SDS011;59358;52.134;5.596;2024-03-02T04:22:32;0.88;;;0.80;;
19205;SDS011;59358;52.134;5.596;2024-03-02T04:24:59;1.83;;;0.70;;
19205;SDS011;59358;52.134;5.596;2024-03-02T04:27:26;3.42;;;0.80;;
19205;SDS011;59358;52.134;5.596;2024-03-02T04:29:53;0.82;;;0.68;;
19205;SDS011;59358;52.134;5.596;2024-03-02T04:32:20;0.90;;;0.65;;
19205;SDS011;59358;52.134;5.596;2024-03-02T04:34:46;2.92;;;0.82;;
19205;SDS011;59358;52.134;5.596;2024-03-02T04:37:13;0.50;;;0.50;;
19205;SDS011;59358;52.134;5.596;2024-03-02T04:39:41;2.85;;;0.60;;
19205;SDS011;59358;52.134;5.596;2024-03-02T04:42:08;2.17;;;1.00;;
19205;SDS011;59358;52.134;5.596;2024-03-02T04:44:35;1.05;;;0.50;;
19205;SDS011;59358;52.134;5.596;2024-03-02T04:47:03;1.08;;;0.50;;
19205;SDS011;59358;52.134;5.596;2024-03-02T04:49:30;1.00;;;0.70;;
19205;SDS011;59358;52.134;5.596;2024-03-02T04:51:56;0.85;;;0.50;;
19205;SDS011;59358;52.134;5.596;2024-03-02T04:54:23;2.35;;;0.55;;
19205;SDS011;59358;52.134;5.596;2024-03-02T04:56:51;4.45;;;0.52;;
19205;SDS011;59358;52.134;5.596;2024-03-02T04:59:18;2.65;;;0.60;;
19205;SDS011;59358;52.134;5.596;2024-03-02T05:01:45;0.95;;;0.52;;
19205;SDS011;59358;52.134;5.596;2024-03-02T05:04:12;1.27;;;0.60;;
19205;SDS011;59358;52.134;5.596;2024-03-02T05:06:39;0.93;;;0.60;;
19205;SDS011;59358;52.134;5.596;2024-03-02T05:09:06;1.15;;;0.52;;
19205;SDS011;59358;52.134;5.596;2024-03-02T05:11:33;3.50;;;0.75;;
19205;SDS011;59358;52.134;5.596;2024-03-02T05:14:29;0.60;;;0.45;;
19205;SDS011;59358;52.134;5.596;2024-03-02T05:16:56;3.08;;;0.77;;
19205;SDS011;59358;52.134;5.596;2024-03-02T05:19:22;4.00;;;2.38;;
19205;SDS011;59358;52.134;5.596;2024-03-02T05:21:50;3.65;;;0.70;;
19205;SDS011;59358;52.134;5.596;2024-03-02T05:24:17;1.65;;;0.80;;
19205;SDS011;59358;52.134;5.596;2024-03-02T05:26:44;3.15;;;0.73;;
19205;SDS011;59358;52.134;5.596;2024-03-02T05:29:10;1.20;;;0.47;;
19205;SDS011;59358;52.134;5.596;2024-03-02T05:31:39;1.23;;;0.60;;
19205;SDS011;59358;52.134;5.596;2024-03-02T05:34:05;0.68;;;0.57;;
19205;SDS011;59358;52.134;5.596;2024-03-02T05:36:32;1.65;;;0.80;;
19205;SDS011;59358;52.134;5.596;2024-03-02T05:38:59;1.88;;;0.70;;
19205;SDS011;59358;52.134;5.596;2024-03-02T05:41:26;2.15;;;0.70;;
19205;SDS011;59358;52.134;5.596;2024-03-02T05:43:53;2.08;;;0.90;;
19205;SDS011;59358;52.134;5.596;2024-03-02T05:46:20;2.78;;;1.20;;
19205;SDS011;59358;52.134;5.596;2024-03-02T05:48:48;2.80;;;0.80;;
19205;SDS011;59358;52.134;5.596;2024-03-02T05:51:15;1.48;;;0.77;;
19205;SDS011;59358;52.134;5.596;2024-03-02T05:53:42;1.17;;;0.68;;
19205;SDS011;59358;52.134;5.596;2024-03-02T05:56:09;1.05;;;0.73;;
19205;SDS011;59358;52.134;5.596;2024-03-02T05:58:37;3.78;;;0.80;;
19205;SDS011;59358;52.134;5.596;2024-03-02T06:01:14;1.95;;;0.60;;
19205;SDS011;59358;52.134;5.596;2024-03-02T06:03:43;2.17;;;0.70;;
19205;SDS011;59358;52.134;5.596;2024-03-02T06:06:11;1.08;;;0.65;;
19205;SDS011;59358;52.134;5.596;2024-03-02T06:08:38;0.82;;;0.82;;
19205;SDS011;59358;52.134;5.596;2024-03-02T06:11:04;2.72;;;1.13;;
19205;SDS011;59358;52.134;5.596;2024-03-02T06:13:31;1.38;;;0.70;;
19205;SDS011;59358;52.134;5.596;2024-03-02T06:15:58;3.22;;;1.10;;
19205;SDS011;59358;52.134;5.596;2024-03-02T06:18:25;5.50;;;1.20;;
19205;SDS011;59358;52.134;5.596;2024-03-02T06:20:53;1.85;;;1.10;;
19205;SDS011;59358;52.134;5.596;2024-03-02T06:23:21;2.75;;;0.90;;
19205;SDS011;59358;52.134;5.596;2024-03-02T06:25:47;2.28;;;1.00;;
19205;SDS011;59358;52.134;5.596;2024-03-02T06:28:14;0.98;;;0.70;;
19205;SDS011;59358;52.134;5.596;2024-03-02T06:30:41;2.28;;;0.90;;
19205;SDS011;59358;52.134;5.596;2024-03-02T06:33:08;0.90;;;0.80;;
19205;SDS011;59358;52.134;5.596;2024-03-02T06:35:35;1.17;;;0.70;;
19205;SDS011;59358;52.134;5.596;2024-03-02T06:38:01;1.77;;;0.88;;
19205;SDS011;59358;52.134;5.596;2024-03-02T06:40:30;1.50;;;0.85;;
19205;SDS011;59358;52.134;5.596;2024-03-02T06:42:57;0.70;;;0.70;;
19205;SDS011;59358;52.134;5.596;2024-03-02T06:45:23;0.65;;;0.60;;
19205;SDS011;59358;52.134;5.596;2024-03-02T06:47:50;3.45;;;1.17;;
19205;SDS011;59358;52.134;5.596;2024-03-02T06:50:17;2.33;;;0.93;;
19205;SDS011;59358;52.134;5.596;2024-03-02T06:52:44;8.82;;;1.35;;
19205;SDS011;59358;52.134;5.596;2024-03-02T06:55:10;1.15;;;0.80;;
19205;SDS011;59358;52.134;5.596;2024-03-02T06:57:39;2.47;;;0.88;;
19205;SDS011;59358;52.134;5.596;2024-03-02T07:00:07;1.55;;;0.95;;
19205;SDS011;59358;52.134;5.596;2024-03-02T07:02:35;6.65;;;1.85;;
19205;SDS011;59358;52.134;5.596;2024-03-02T07:05:02;5.22;;;0.80;;
19205;SDS011;59358;52.134;5.596;2024-03-02T07:07:29;1.55;;;0.90;;
19205;SDS011;59358;52.134;5.596;2024-03-02T07:09:56;3.83;;;1.17;;
19205;SDS011;59358;52.134;5.596;2024-03-02T07:12:23;2.47;;;1.20;;
19205;SDS011;59358;52.134;5.596;2024-03-02T07:14:51;5.47;;;1.35;;
19205;SDS011;59358;52.134;5.596;2024-03-02T07:17:49;1.92;;;1.40;;
19205;SDS011;59358;52.134;5.596;2024-03-02T07:20:16;4.18;;;1.67;;
19205;SDS011;59358;52.134;5.596;2024-03-02T07:22:43;2.47;;;1.10;;
19205;SDS011;59358;52.134;5.596;2024-03-02T07:25:10;2.20;;;1.08;;
19205;SDS011;59358;52.134;5.596;2024-03-02T07:27:37;6.75;;;1.17;;
19205;SDS011;59358;52.134;5.596;2024-03-02T07:30:06;3.08;;;1.20;;
19205;SDS011;59358;52.134;5.596;2024-03-02T07:32:33;2.22;;;1.05;;
19205;SDS011;59358;52.134;5.596;2024-03-02T07:35:00;2.85;;;1.15;;
19205;SDS011;59358;52.134;5.596;2024-03-02T07:37:28;2.03;;;1.08;;
19205;SDS011;59358;52.134;5.596;2024-03-02T07:39:55;1.67;;;1.10;;
19205;SDS011;59358;52.134;5.596;2024-03-02T07:42:23;1.08;;;1.02;;
19205;SDS011;59358;52.134;5.596;2024-03-02T07:44:50;7.72;;;0.90;;
19205;SDS011;59358;52.134;5.596;2024-03-02T07:47:18;4.80;;;0.85;;
19205;SDS011;59358;52.134;5.596;2024-03-02T07:49:44;2.58;;;1.73;;
19205;SDS011;59358;52.134;5.596;2024-03-02T07:52:12;2.03;;;0.77;;
19205;SDS011;59358;52.134;5.596;2024-03-02T07:54:39;3.03;;;1.15;;
19205;SDS011;59358;52.134;5.596;2024-03-02T07:57:05;2.28;;;1.17;;
19205;SDS011;59358;52.134;5.596;2024-03-02T07:59:33;2.83;;;1.00;;
19205;SDS011;59358;52.134;5.596;2024-03-02T08:02:00;2.92;;;0.93;;
19205;SDS011;59358;52.134;5.596;2024-03-02T08:04:28;2.67;;;1.20;;
19205;SDS011;59358;52.134;5.596;2024-03-02T08:06:55;2.75;;;1.17;;
19205;SDS011;59358;52.134;5.596;2024-03-02T08:09:22;3.20;;;1.15;;
19205;SDS011;59358;52.134;5.596;2024-03-02T08:11:49;1.42;;;0.80;;
19205;SDS011;59358;52.134;5.596;2024-03-02T08:14:16;3.08;;;0.98;;
19205;SDS011;59358;52.134;5.596;2024-03-02T08:16:43;2.78;;;1.10;;
19205;SDS011;59358;52.134;5.596;2024-03-02T08:19:09;2.20;;;0.90;;
19205;SDS011;59358;52.134;5.596;2024-03-02T08:21:38;2.15;;;1.08;;
19205;SDS011;59358;52.134;5.596;2024-03-02T08:24:05;2.92;;;0.85;;
19205;SDS011;59358;52.134;5.596;2024-03-02T08:26:32;3.22;;;1.35;;
19205;SDS011;59358;52.134;5.596;2024-03-02T08:29:00;2.42;;;0.90;;
19205;SDS011;59358;52.134;5.596;2024-03-02T08:31:28;2.25;;;0.70;;
19205;SDS011;59358;52.134;5.596;2024-03-02T08:33:55;3.85;;;1.00;;
19205;SDS011;59358;52.134;5.596;2024-03-02T08:36:25;4.80;;;0.80;;
19205;SDS011;59358;52.134;5.596;2024-03-02T08:38:53;5.18;;;1.10;;
19205;SDS011;59358;52.134;5.596;2024-03-02T08:41:20;2.38;;;1.02;;
19205;SDS011;59358;52.134;5.596;2024-03-02T08:43:47;1.77;;;0.90;;
19205;SDS011;59358;52.134;5.596;2024-03-02T08:46:14;4.05;;;1.02;;
19205;SDS011;59358;52.134;5.596;2024-03-02T08:48:41;4.88;;;1.00;;
19205;SDS011;59358;52.134;5.596;2024-03-02T08:51:08;6.78;;;1.10;;
19205;SDS011;59358;52.134;5.596;2024-03-02T08:53:35;2.05;;;0.90;;
19205;SDS011;59358;52.134;5.596;2024-03-02T08:56:04;2.72;;;0.98;;
19205;SDS011;59358;52.134;5.596;2024-03-02T08:58:31;2.53;;;1.02;;
19205;SDS011;59358;52.134;5.596;2024-03-02T09:00:58;1.92;;;0.77;;
19205;SDS011;59358;52.134;5.596;2024-03-02T09:03:25;4.85;;;0.90;;
19205;SDS011;59358;52.134;5.596;2024-03-02T09:05:52;9.25;;;1.80;;
19205;SDS011;59358;52.134;5.596;2024-03-02T09:08:18;4.68;;;1.02;;
19205;SDS011;59358;52.134;5.596;2024-03-02T09:10:45;3.17;;;0.95;;
19205;SDS011;59358;52.134;5.596;2024-03-02T09:13:13;1.42;;;0.88;;
19205;SDS011;59358;52.134;5.596;2024-03-02T09:15:41;5.50;;;2.35;;
19205;SDS011;59358;52.134;5.596;2024-03-02T09:18:08;6.35;;;1.42;;
19205;SDS011;59358;52.134;5.596;2024-03-02T09:20:34;6.43;;;1.27;;
19205;SDS011;59358;52.134;5.596;2024-03-02T09:23:01;6.25;;;1.05;;
19205;SDS011;59358;52.134;5.596;2024-03-02T09:25:28;2.20;;;0.90;;
19205;SDS011;59358;52.134;5.596;2024-03-02T09:27:55;4.32;;;1.42;;
19205;SDS011;59358;52.134;5.596;2024-03-02T09:30:23;4.65;;;1.13;;
19205;SDS011;59358;52.134;5.596;2024-03-02T09:32:50;3.10;;;0.95;;
19205;SDS011;59358;52.134;5.596;2024-03-02T09:35:17;7.22;;;1.27;;
19205;SDS011;59358;52.134;5.596;2024-03-02T09:37:44;5.82;;;1.38;;
19205;SDS011;59358;52.134;5.596;2024-03-02T09:40:11;4.60;;;1.00;;
19205;SDS011;59358;52.134;5.596;2024-03-02T09:42:44;2.75;;;1.63;;
19205;SDS011;59358;52.134;5.596;2024-03-02T09:45:16;4.60;;;1.05;;
19205;SDS011;59358;52.134;5.596;2024-03-02T09:47:45;3.28;;;1.05;;
19205;SDS011;59358;52.134;5.596;2024-03-02T09:50:12;5.75;;;1.20;;
19205;SDS011;59358;52.134;5.596;2024-03-02T09:52:39;3.42;;;0.93;;
19205;SDS011;59358;52.134;5.596;2024-03-02T09:55:08;4.05;;;0.98;;
19205;SDS011;59358;52.134;5.596;2024-03-02T09:57:35;7.88;;;1.80;;
19205;SDS011;59358;52.134;5.596;2024-03-02T10:00:02;4.05;;;1.10;;
19205;SDS011;59358;52.134;5.596;2024-03-02T10:02:29;4.03;;;1.77;;
19205;SDS011;59358;52.134;5.596;2024-03-02T10:04:58;5.07;;;1.25;;
19205;SDS011;59358;52.134;5.596;2024-03-02T10:07:24;3.22;;;1.13;;
19205;SDS011;59358;52.134;5.596;2024-03-02T10:09:50;6.78;;;1.40;;
19205;SDS011;59358;52.134;5.596;2024-03-02T10:12:18;5.57;;;1.02;;
19205;SDS011;59358;52.134;5.596;2024-03-02T10:14:45;8.10;;;1.67;;
19205;SDS011;59358;52.134;5.596;2024-03-02T10:17:13;5.30;;;1.17;;
19205;SDS011;59358;52.134;5.596;2024-03-02T10:19:43;2.00;;;0.80;;
19205;SDS011;59358;52.134;5.596;2024-03-02T10:22:11;2.45;;;0.90;;
19205;SDS011;59358;52.134;5.596;2024-03-02T10:24:38;10.40;;;2.13;;
19205;SDS011;59358;52.134;5.596;2024-03-02T10:27:07;3.50;;;0.95;;
19205;SDS011;59358;52.134;5.596;2024-03-02T10:29:38;6.78;;;1.33;;
19205;SDS011;59358;52.134;5.596;2024-03-02T10:32:06;3.17;;;1.10;;
19205;SDS011;59358;52.134;5.596;2024-03-02T10:34:36;3.55;;;0.98;;
19205;SDS011;59358;52.134;5.596;2024-03-02T10:37:03;4.30;;;1.25;;
19205;SDS011;59358;52.134;5.596;2024-03-02T10:39:34;1.77;;;1.08;;
19205;SDS011;59358;52.134;5.596;2024-03-02T10:42:05;1.92;;;1.10;;
19205;SDS011;59358;52.134;5.596;2024-03-02T10:44:33;5.40;;;1.42;;
19205;SDS011;59358;52.134;5.596;2024-03-02T10:47:00;4.57;;;1.30;;
19205;SDS011;59358;52.134;5.596;2024-03-02T10:49:28;2.30;;;0.90;;
19205;SDS011;59358;52.134;5.596;2024-03-02T10:51:56;3.70;;;0.80;;
19205;SDS011;59358;52.134;5.596;2024-03-02T10:54:23;4.28;;;1.38;;
19205;SDS011;59358;52.134;5.596;2024-03-02T10:56:53;5.38;;;1.10;;
19205;SDS011;59358;52.134;5.596;2024-03-02T10:59:24;4.32;;;1.40;;
19205;SDS011;59358;52.134;5.596;2024-03-02T11:01:55;5.90;;;1.40;;
19205;SDS011;59358;52.134;5.596;2024-03-02T11:04:24;6.63;;;1.25;;
19205;SDS011;59358;52.134;5.596;2024-03-02T11:06:51;4.93;;;1.42;;
19205;SDS011;59358;52.134;5.596;2024-03-02T11:09:22;3.30;;;1.10;;
19205;SDS011;59358;52.134;5.596;2024-03-02T11:11:56;3.03;;;1.05;;
19205;SDS011;59358;52.134;5.596;2024-03-02T11:14:30;3.05;;;0.80;;
19205;SDS011;59358;52.134;5.596;2024-03-02T11:16:58;5.68;;;1.00;;
19205;SDS011;59358;52.134;5.596;2024-03-02T11:19:28;5.18;;;1.48;;
19205;SDS011;59358;52.134;5.596;2024-03-02T11:21:56;2.08;;;1.08;;
19205;SDS011;59358;52.134;5.596;2024-03-02T11:24:33;4.30;;;0.82;;
19205;SDS011;59358;52.134;5.596;2024-03-02T11:27:01;4.95;;;0.88;;
19205;SDS011;59358;52.134;5.596;2024-03-02T11:29:45;1.92;;;0.90;;
19205;SDS011;59358;52.134;5.596;2024-03-02T11:32:17;4.18;;;1.08;;
19205;SDS011;59358;52.134;5.596;2024-03-02T11:34:47;4.78;;;1.00;;
19205;SDS011;59358;52.134;5.596;2024-03-02T11:37:15;3.80;;;1.08;;
19205;SDS011;59358;52.134;5.596;2024-03-02T11:39:43;3.55;;;0.95;;
19205;SDS011;59358;52.134;5.596;2024-03-02T11:42:13;5.13;;;0.70;;
19205;SDS011;59358;52.134;5.596;2024-03-02T11:44:42;3.28;;;1.25;;
19205;SDS011;59358;52.134;5.596;2024-03-02T11:47:14;4.30;;;1.98;;
19205;SDS011;59358;52.134;5.596;2024-03-02T11:49:42;6.75;;;3.67;;
19205;SDS011;59358;52.134;5.596;2024-03-02T11:52:11;4.93;;;3.15;;
19205;SDS011;59358;52.134;5.596;2024-03-02T11:54:41;5.72;;;1.80;;
19205;SDS011;59358;52.134;5.596;2024-03-02T11:57:14;3.38;;;1.02;;
19205;SDS011;59358;52.134;5.596;2024-03-02T11:59:42;2.92;;;1.00;;
19205;SDS011;59358;52.134;5.596;2024-03-02T12:02:14;3.95;;;1.30;;
19205;SDS011;59358;52.134;5.596;2024-03-02T12:04:42;5.82;;;1.17;;
19205;SDS011;59358;52.134;5.596;2024-03-02T12:07:10;4.10;;;1.98;;
19205;SDS011;59358;52.134;5.596;2024-03-02T12:09:46;4.35;;;2.53;;
19205;SDS011;59358;52.134;5.596;2024-03-02T12:12:14;4.53;;;2.30;;
19205;SDS011;59358;52.134;5.596;2024-03-02T12:14:49;7.05;;;2.72;;
19205;SDS011;59358;52.134;5.596;2024-03-02T12:17:21;5.22;;;2.05;;
19205;SDS011;59358;52.134;5.596;2024-03-02T12:19:48;5.28;;;2.65;;
19205;SDS011;59358;52.134;5.596;2024-03-02T12:22:15;2.70;;;1.13;;
19205;SDS011;59358;52.134;5.596;2024-03-02T12:24:42;2.60;;;0.98;;
19205;SDS011;59358;52.134;5.596;2024-03-02T12:27:10;2.15;;;1.08;;
19205;SDS011;59358;52.134;5.596;2024-03-02T12:29:39;1.85;;;0.90;;
19205;SDS011;59358;52.134;5.596;2024-03-02T12:32:06;4.40;;;1.30;;
19205;SDS011;59358;52.134;5.596;2024-03-02T12:34:34;5.78;;;1.40;;
19205;SDS011;59358;52.134;5.596;2024-03-02T12:37:01;3.30;;;1.00;;
19205;SDS011;59358;52.134;5.596;2024-03-02T12:39:28;2.15;;;1.02;;
19205;SDS011;59358;52.134;5.596;2024-03-02T12:41:57;1.60;;;0.60;;
19205;SDS011;59358;52.134;5.596;2024-03-02T12:44:24;2.85;;;1.00;;
19205;SDS011;59358;52.134;5.596;2024-03-02T12:46:52;2.28;;;1.00;;
19205;SDS011;59358;52.134;5.596;2024-03-02T12:49:21;2.50;;;0.93;;
19205;SDS011;59358;52.134;5.596;2024-03-02T12:51:49;4.80;;;1.10;;
19205;SDS011;59358;52.134;5.596;2024-03-02T12:54:18;3.95;;;1.20;;
19205;SDS011;59358;52.134;5.596;2024-03-02T12:56:49;3.42;;;1.02;;
19205;SDS011;59358;52.134;5.596;2024-03-02T12:59:19;4.15;;;1.30;;
19205;SDS011;59358;52.134;5.596;2024-03-02T13:01:52;2.67;;;1.05;;
19205;SDS011;59358;52.134;5.596;2024-03-02T13:04:22;4.07;;;0.90;;
19205;SDS011;59358;52.134;5.596;2024-03-02T13:06:51;3.25;;;1.00;;
19205;SDS011;59358;52.134;5.596;2024-03-02T13:09:18;3.60;;;1.02;;
19205;SDS011;59358;52.134;5.596;2024-03-02T13:11:45;2.47;;;1.17;;
19205;SDS011;59358;52.134;5.596;2024-03-02T13:14:12;2.90;;;1.30;;
19205;SDS011;59358;52.134;5.596;2024-03-02T13:16:39;2.70;;;1.50;;
19205;SDS011;59358;52.134;5.596;2024-03-02T13:19:08;4.25;;;1.65;;
19205;SDS011;59358;52.134;5.596;2024-03-02T13:21:35;3.75;;;1.20;;
19205;SDS011;59358;52.134;5.596;2024-03-02T13:24:02;2.55;;;1.23;;
19205;SDS011;59358;52.134;5.596;2024-03-02T13:26:29;5.70;;;1.13;;
19205;SDS011;59358;52.134;5.596;2024-03-02T13:28:56;2.15;;;1.13;;
19205;SDS011;59358;52.134;5.596;2024-03-02T13:31:23;2.90;;;1.00;;
19205;SDS011;59358;52.134;5.596;2024-03-02T13:33:50;3.00;;;1.00;;
19205;SDS011;59358;52.134;5.596;2024-03-02T13:36:18;3.33;;;1.15;;
19205;SDS011;59358;52.134;5.596;2024-03-02T13:38:45;4.13;;;1.55;;
19205;SDS011;59358;52.134;5.596;2024-03-02T13:41:11;5.85;;;1.70;;
19205;SDS011;59358;52.134;5.596;2024-03-02T13:43:38;3.05;;;1.15;;
19205;SDS011;59358;52.134;5.596;2024-03-02T13:46:05;3.03;;;1.55;;
19205;SDS011;59358;52.134;5.596;2024-03-02T13:48:32;5.22;;;2.10;;
19205;SDS011;59358;52.134;5.596;2024-03-02T13:50:59;3.05;;;1.98;;
19205;SDS011;59358;52.134;5.596;2024-03-02T13:53:27;3.83;;;1.58;;
19205;SDS011;59358;52.134;5.596;2024-03-02T13:55:54;2.92;;;1.27;;
19205;SDS011;59358;52.134;5.596;2024-03-02T13:58:21;2.90;;;1.50;;
19205;SDS011;59358;52.134;5.596;2024-03-02T14:00:47;2.47;;;1.30;;
19205;SDS011;59358;52.134;5.596;2024-03-02T14:03:14;5.00;;;1.80;;
19205;SDS011;59358;52.134;5.596;2024-03-02T14:05:41;4.88;;;1.20;;
19205;SDS011;59358;52.134;5.596;2024-03-02T14:08:11;3.03;;;1.10;;
19205;SDS011;59358;52.134;5.596;2024-03-02T14:10:39;4.43;;;1.10;;
19205;SDS011;59358;52.134;5.596;2024-03-02T14:13:07;2.63;;;1.00;;
19205;SDS011;59358;52.134;5.596;2024-03-02T14:15:34;1.98;;;1.08;;
19205;SDS011;59358;52.134;5.596;2024-03-02T14:18:04;3.03;;;1.20;;
19205;SDS011;59358;52.134;5.596;2024-03-02T14:20:31;2.88;;;1.13;;
19205;SDS011;59358;52.134;5.596;2024-03-02T14:22:58;4.15;;;1.52;;
19205;SDS011;59358;52.134;5.596;2024-03-02T14:25:26;3.13;;;1.35;;
19205;SDS011;59358;52.134;5.596;2024-03-02T14:27:57;2.50;;;1.50;;
19205;SDS011;59358;52.134;5.596;2024-03-02T14:30:23;3.80;;;1.58;;
19205;SDS011;59358;52.134;5.596;2024-03-02T14:32:50;3.42;;;1.20;;
19205;SDS011;59358;52.134;5.596;2024-03-02T14:35:17;4.10;;;1.40;;
19205;SDS011;59358;52.134;5.596;2024-03-02T14:37:45;3.10;;;1.27;;
19205;SDS011;59358;52.134;5.596;2024-03-02T14:40:12;2.78;;;1.05;;
19205;SDS011;59358;52.134;5.596;2024-03-02T14:42:39;3.22;;;1.20;;
19205;SDS011;59358;52.134;5.596;2024-03-02T14:45:08;5.97;;;1.13;;
19205;SDS011;59358;52.134;5.596;2024-03-02T14:47:35;2.95;;;1.42;;
19205;SDS011;59358;52.134;5.596;2024-03-02T14:50:02;2.33;;;1.52;;
19205;SDS011;59358;52.134;5.596;2024-03-02T14:52:31;3.00;;;1.25;;